createdAt,value
2017-01-16T00:00:01.578Z,0
2017-01-16T00:01:11.313Z,0
2017-01-16T00:02:21.536Z,0
2017-01-16T00:03:31.261Z,0
2017-01-16T00:04:40.994Z,0
2017-01-16T00:05:50.727Z,0
2017-01-16T00:07:00.900Z,0
2017-01-16T00:08:10.234Z,0
2017-01-16T00:09:20.847Z,0
2017-01-16T00:10:31.016Z,0
2017-01-16T00:11:40.749Z,0
2017-01-16T00:12:51.374Z,0
2017-01-16T00:14:01.151Z,0
2017-01-16T00:15:10.884Z,0
2017-01-16T00:16:20.165Z,0
2017-01-16T00:17:29.891Z,0
2017-01-16T00:18:40.068Z,0
2017-01-16T00:19:49.849Z,0
2017-01-16T00:20:59.574Z,0
2017-01-16T00:22:09.301Z,0
2017-01-16T00:23:19.028Z,0
2017-01-16T00:24:28.754Z,0
2017-01-16T00:25:38.535Z,0
2017-01-16T00:26:48.704Z,0
2017-01-16T00:27:58.429Z,0
2017-01-16T00:29:07.722Z,0
2017-01-16T00:30:17.451Z,0
2017-01-16T00:31:27.268Z,0
2017-01-16T00:32:36.993Z,0
2017-01-16T00:33:46.723Z,0
2017-01-16T00:34:56.455Z,0
2017-01-16T00:36:06.625Z,0
2017-01-16T00:37:16.410Z,0
2017-01-16T00:38:26.583Z,0
2017-01-16T00:39:36.312Z,0
2017-01-16T00:40:46.045Z,0
2017-01-16T00:41:55.782Z,0
2017-01-16T00:43:05.564Z,0
2017-01-16T00:44:15.740Z,0
2017-01-16T00:45:25.910Z,0
2017-01-16T00:46:36.083Z,0
2017-01-16T00:47:45.812Z,0
2017-01-16T00:48:56.029Z,0
2017-01-16T00:50:06.202Z,0
2017-01-16T00:51:15.931Z,0
2017-01-16T00:52:26.101Z,0
2017-01-16T00:53:36.274Z,0
2017-01-16T00:54:46.051Z,0
2017-01-16T00:55:55.784Z,0
2017-01-16T00:57:05.509Z,0
2017-01-16T00:58:15.234Z,0
2017-01-16T00:59:24.960Z,0
2017-01-16T01:00:34.740Z,0
2017-01-16T01:01:44.917Z,0
2017-01-16T01:02:55.094Z,0
2017-01-16T01:04:05.712Z,0
2017-01-16T01:05:15.441Z,0
2017-01-16T01:06:25.215Z,0
2017-01-16T01:07:35.379Z,0
2017-01-16T01:08:45.561Z,0
2017-01-16T01:09:55.726Z,0
2017-01-16T01:11:06.351Z,0
2017-01-16T01:12:16.584Z,0
2017-01-16T01:13:26.305Z,0
2017-01-16T01:14:36.926Z,0
2017-01-16T01:15:46.675Z,0
2017-01-16T01:16:56.412Z,0
2017-01-16T01:18:06.637Z,0
2017-01-16T01:19:16.807Z,0
2017-01-16T01:20:26.972Z,0
2017-01-16T01:21:36.721Z,0
2017-01-16T01:22:47.334Z,0
2017-01-16T01:23:57.207Z,0
2017-01-16T01:25:06.941Z,0
2017-01-16T01:26:16.673Z,0
2017-01-16T01:27:26.847Z,0
2017-01-16T01:28:36.571Z,0
2017-01-16T01:29:46.793Z,0
2017-01-16T01:30:56.523Z,0
2017-01-16T01:32:06.275Z,0
2017-01-16T01:33:16.445Z,0
2017-01-16T01:34:26.178Z,0
2017-01-16T01:35:35.511Z,0
2017-01-16T01:36:45.708Z,0
2017-01-16T01:37:56.765Z,0
2017-01-16T01:39:07.378Z,0
2017-01-16T01:40:17.111Z,0
2017-01-16T01:41:27.333Z,0
2017-01-16T01:42:37.506Z,0
2017-01-16T01:43:47.679Z,0
2017-01-16T01:44:57.409Z,0
2017-01-16T01:46:06.697Z,0
2017-01-16T01:47:17.350Z,0
2017-01-16T01:48:27.521Z,0
2017-01-16T01:49:37.705Z,0
2017-01-16T01:50:48.318Z,0
2017-01-16T01:51:58.515Z,0
2017-01-16T01:53:08.288Z,0
2017-01-16T01:54:18.021Z,0
2017-01-16T01:55:27.746Z,0
2017-01-16T01:56:37.475Z,0
2017-01-16T01:57:47.648Z,0
2017-01-16T01:58:57.866Z,0
2017-01-16T02:00:07.599Z,0
2017-01-16T02:01:16.880Z,0
2017-01-16T02:02:27.049Z,0
2017-01-16T02:03:36.778Z,0
2017-01-16T02:04:46.552Z,0
2017-01-16T02:05:57.173Z,0
2017-01-16T02:07:06.898Z,0
2017-01-16T02:08:17.071Z,0
2017-01-16T02:09:26.796Z,0
2017-01-16T02:10:37.021Z,0
2017-01-16T02:11:47.182Z,0
2017-01-16T02:12:56.908Z,0
2017-01-16T02:14:06.201Z,0
2017-01-16T02:15:15.926Z,0
2017-01-16T02:16:25.703Z,0
2017-01-16T02:17:35.432Z,0
2017-01-16T02:18:45.158Z,0
2017-01-16T02:19:54.906Z,0
2017-01-16T02:21:05.067Z,0
2017-01-16T02:22:15.389Z,0
2017-01-16T02:23:26.002Z,0
2017-01-16T02:24:36.171Z,0
2017-01-16T02:25:45.896Z,0
2017-01-16T02:26:55.617Z,0
2017-01-16T02:28:05.398Z,0
2017-01-16T02:29:15.127Z,0
2017-01-16T02:30:24.872Z,0
2017-01-16T02:31:35.042Z,0
2017-01-16T02:32:45.219Z,0
2017-01-16T02:33:55.440Z,0
2017-01-16T02:35:05.169Z,0
2017-01-16T02:36:14.890Z,0
2017-01-16T02:37:24.616Z,0
2017-01-16T02:38:34.784Z,0
2017-01-16T02:39:45.006Z,0
2017-01-16T02:40:54.298Z,0
2017-01-16T02:42:04.020Z,0
2017-01-16T02:43:14.181Z,0
2017-01-16T02:44:23.898Z,0
2017-01-16T02:45:33.672Z,0
2017-01-16T02:46:43.401Z,0
2017-01-16T02:47:52.682Z,0
2017-01-16T02:49:03.274Z,0
2017-01-16T02:50:13.436Z,0
2017-01-16T02:51:24.218Z,0
2017-01-16T02:52:34.719Z,0
2017-01-16T02:53:45.064Z,0
2017-01-16T02:54:54.781Z,0
2017-01-16T02:56:04.966Z,0
2017-01-16T02:57:15.615Z,0
2017-01-16T02:58:24.888Z,0
2017-01-16T02:59:34.610Z,0
2017-01-16T03:00:43.889Z,0
2017-01-16T03:01:53.168Z,0
2017-01-16T03:03:04.397Z,0
2017-01-16T03:04:14.555Z,0
2017-01-16T03:05:24.272Z,0
2017-01-16T03:06:34.433Z,0
2017-01-16T03:07:44.146Z,0
2017-01-16T03:08:53.919Z,0
2017-01-16T03:10:03.636Z,0
2017-01-16T03:11:13.797Z,0
2017-01-16T03:12:23.510Z,0
2017-01-16T03:13:34.101Z,0
2017-01-16T03:14:44.317Z,0
2017-01-16T03:15:54.466Z,0
2017-01-16T03:17:04.187Z,0
2017-01-16T03:18:14.344Z,0
2017-01-16T03:19:24.498Z,0
2017-01-16T03:20:33.831Z,0
2017-01-16T03:21:43.552Z,0
2017-01-16T03:22:52.829Z,0
2017-01-16T03:24:02.982Z,0
2017-01-16T03:25:12.269Z,0
2017-01-16T03:26:22.041Z,0
2017-01-16T03:27:32.194Z,0
2017-01-16T03:28:42.355Z,0
2017-01-16T03:29:52.076Z,0
2017-01-16T03:31:02.229Z,0
2017-01-16T03:32:12.027Z,0
2017-01-16T03:33:21.740Z,0
2017-01-16T03:34:31.897Z,0
2017-01-16T03:35:41.622Z,0
2017-01-16T03:36:51.775Z,0
2017-01-16T03:38:01.541Z,0
2017-01-16T03:39:11.701Z,0
2017-01-16T03:40:21.851Z,0
2017-01-16T03:41:31.580Z,0
2017-01-16T03:42:42.162Z,0
2017-01-16T03:43:52.807Z,0
2017-01-16T03:45:02.524Z,0
2017-01-16T03:46:12.686Z,0
2017-01-16T03:47:22.402Z,0
2017-01-16T03:48:32.128Z,0
2017-01-16T03:49:41.457Z,0
2017-01-16T03:50:51.170Z,0
2017-01-16T03:52:01.759Z,0
2017-01-16T03:53:11.912Z,0
2017-01-16T03:54:21.631Z,0
2017-01-16T03:55:31.411Z,0
2017-01-16T03:56:42.008Z,0
2017-01-16T03:57:51.729Z,0
2017-01-16T03:59:02.322Z,0
2017-01-16T04:00:13.352Z,0
2017-01-16T04:01:23.561Z,0
2017-01-16T04:02:33.717Z,0
2017-01-16T04:03:43.428Z,0
2017-01-16T04:04:53.144Z,0
2017-01-16T04:06:03.305Z,0
2017-01-16T04:07:12.639Z,0
2017-01-16T04:08:22.792Z,0
2017-01-16T04:09:32.945Z,0
2017-01-16T04:10:42.668Z,0
2017-01-16T04:11:53.260Z,0
2017-01-16T04:13:03.473Z,0
2017-01-16T04:14:12.750Z,0
2017-01-16T04:15:22.031Z,0
2017-01-16T04:16:32.188Z,0
2017-01-16T04:17:41.911Z,0
2017-01-16T04:18:52.118Z,0
2017-01-16T04:20:01.832Z,0
2017-01-16T04:21:12.425Z,0
2017-01-16T04:22:22.150Z,0
2017-01-16T04:23:31.435Z,0
2017-01-16T04:24:41.348Z,0
2017-01-16T04:25:51.073Z,0
2017-01-16T04:27:00.347Z,0
2017-01-16T04:28:10.068Z,0
2017-01-16T04:29:19.785Z,0
2017-01-16T04:30:29.118Z,0
2017-01-16T04:31:38.839Z,0
2017-01-16T04:32:48.121Z,0
2017-01-16T04:33:57.401Z,0
2017-01-16T04:35:08.010Z,0
2017-01-16T04:36:18.680Z,0
2017-01-16T04:37:28.833Z,0
2017-01-16T04:38:38.554Z,0
2017-01-16T04:39:48.704Z,0
2017-01-16T04:40:58.861Z,0
2017-01-16T04:42:08.639Z,0
2017-01-16T04:43:18.355Z,0
2017-01-16T04:44:27.636Z,0
2017-01-16T04:45:37.353Z,0
2017-01-16T04:46:47.075Z,0
2017-01-16T04:47:57.280Z,0
2017-01-16T04:49:07.453Z,0
2017-01-16T04:50:17.611Z,0
2017-01-16T04:51:27.763Z,0
2017-01-16T04:52:38.357Z,0
2017-01-16T04:53:47.690Z,0
2017-01-16T04:54:57.847Z,0
2017-01-16T04:56:08.444Z,0
2017-01-16T04:57:18.605Z,0
2017-01-16T04:58:28.328Z,0
2017-01-16T04:59:38.536Z,0
2017-01-16T05:00:48.249Z,0
2017-01-16T05:01:58.398Z,0
2017-01-16T05:03:08.111Z,0
2017-01-16T05:04:17.392Z,0
2017-01-16T05:05:28.034Z,0
2017-01-16T05:06:38.631Z,0
2017-01-16T05:07:48.344Z,0
2017-01-16T05:08:57.621Z,0
2017-01-16T05:10:07.338Z,0
2017-01-16T05:11:16.674Z,0
2017-01-16T05:12:26.393Z,0
2017-01-16T05:13:36.114Z,0
2017-01-16T05:14:45.399Z,0
2017-01-16T05:15:55.552Z,0
2017-01-16T05:17:04.882Z,0
2017-01-16T05:18:15.043Z,0
2017-01-16T05:19:24.328Z,0
2017-01-16T05:20:34.041Z,0
2017-01-16T05:21:43.762Z,0
2017-01-16T05:22:53.967Z,0
2017-01-16T05:24:04.564Z,0
2017-01-16T05:25:14.310Z,0
2017-01-16T05:26:24.023Z,0
2017-01-16T05:27:33.740Z,0
2017-01-16T05:28:44.529Z,0
2017-01-16T05:29:54.686Z,0
2017-01-16T05:31:04.431Z,0
2017-01-16T05:32:14.589Z,0
2017-01-16T05:33:24.742Z,0
2017-01-16T05:34:34.067Z,0
2017-01-16T05:35:44.220Z,0
2017-01-16T05:36:53.941Z,0
2017-01-16T05:38:03.227Z,0
2017-01-16T05:39:12.944Z,0
2017-01-16T05:40:22.714Z,0
2017-01-16T05:41:31.997Z,0
2017-01-16T05:42:42.151Z,0
2017-01-16T05:43:51.432Z,0
2017-01-16T05:45:01.150Z,0
2017-01-16T05:46:10.486Z,0
2017-01-16T05:47:20.204Z,0
2017-01-16T05:48:29.921Z,0
2017-01-16T05:49:39.642Z,0
2017-01-16T05:50:49.823Z,0
2017-01-16T05:51:59.153Z,0
2017-01-16T05:53:08.426Z,0
2017-01-16T05:54:18.147Z,0
2017-01-16T05:55:28.300Z,0
2017-01-16T05:56:37.578Z,0
2017-01-16T05:57:47.350Z,0
2017-01-16T05:58:57.072Z,0
2017-01-16T06:00:06.788Z,0
2017-01-16T06:01:16.946Z,0
2017-01-16T06:02:26.687Z,0
2017-01-16T06:03:36.884Z,0
2017-01-16T06:04:47.038Z,0
2017-01-16T06:05:56.319Z,0
2017-01-16T06:07:06.036Z,0
2017-01-16T06:08:16.193Z,0
2017-01-16T06:09:25.522Z,0
2017-01-16T06:10:35.675Z,0
2017-01-16T06:11:45.832Z,0
2017-01-16T06:12:55.994Z,0
2017-01-16T06:14:05.707Z,0
2017-01-16T06:15:15.036Z,0
2017-01-16T06:16:24.753Z,0
2017-01-16T06:17:34.906Z,0
2017-01-16T06:18:44.627Z,0
2017-01-16T06:19:55.221Z,0
2017-01-16T06:21:05.430Z,0
2017-01-16T06:22:15.147Z,0
2017-01-16T06:23:24.424Z,0
2017-01-16T06:24:34.141Z,0
2017-01-16T06:25:43.858Z,0
2017-01-16T06:26:53.187Z,0
2017-01-16T06:28:03.341Z,0
2017-01-16T06:29:13.058Z,0
2017-01-16T06:30:22.379Z,0
2017-01-16T06:31:32.532Z,0
2017-01-16T06:32:42.737Z,0
2017-01-16T06:33:52.459Z,0
2017-01-16T06:35:01.736Z,0
2017-01-16T06:36:11.925Z,0
2017-01-16T06:37:22.078Z,0
2017-01-16T06:38:31.847Z,0
2017-01-16T06:39:41.584Z,0
2017-01-16T06:40:50.862Z,0
2017-01-16T06:42:01.023Z,0
2017-01-16T06:43:10.300Z,0
2017-01-16T06:44:20.513Z,0
2017-01-16T06:45:29.798Z,0
2017-01-16T06:46:39.955Z,0
2017-01-16T06:47:50.101Z,0
2017-01-16T06:48:59.378Z,0
2017-01-16T06:50:10.023Z,0
2017-01-16T06:51:20.620Z,0
2017-01-16T06:52:30.333Z,0
2017-01-16T06:53:40.046Z,0
2017-01-16T06:54:49.324Z,0
2017-01-16T06:55:59.533Z,0
2017-01-16T06:57:09.690Z,0
2017-01-16T06:58:19.403Z,0
2017-01-16T06:59:28.684Z,0
2017-01-16T07:00:38.397Z,0
2017-01-16T07:01:48.166Z,0
2017-01-16T07:02:58.312Z,0
2017-01-16T07:04:08.028Z,0
2017-01-16T07:05:18.186Z,0
2017-01-16T07:06:28.331Z,0
2017-01-16T07:07:37.656Z,0
2017-01-16T07:08:47.369Z,0
2017-01-16T07:09:57.086Z,0
2017-01-16T07:11:06.831Z,0
2017-01-16T07:12:16.992Z,0
2017-01-16T07:13:26.757Z,0
2017-01-16T07:14:37.346Z,0
2017-01-16T07:15:46.628Z,0
2017-01-16T07:16:56.364Z,0
2017-01-16T07:18:06.077Z,0
2017-01-16T07:19:16.282Z,0
2017-01-16T07:20:25.999Z,0
2017-01-16T07:21:36.589Z,0
2017-01-16T07:22:46.745Z,0
2017-01-16T07:23:56.462Z,0
2017-01-16T07:25:07.099Z,0
2017-01-16T07:26:17.252Z,0
2017-01-16T07:27:26.974Z,0
2017-01-16T07:28:37.567Z,0
2017-01-16T07:29:46.852Z,0
2017-01-16T07:30:57.061Z,0
2017-01-16T07:32:06.774Z,0
2017-01-16T07:33:17.367Z,0
2017-01-16T07:34:27.084Z,0
2017-01-16T07:35:36.823Z,0
2017-01-16T07:36:47.035Z,0
2017-01-16T07:37:57.628Z,0
2017-01-16T07:39:07.341Z,0
2017-01-16T07:40:16.618Z,0
2017-01-16T07:41:26.343Z,0
2017-01-16T07:42:36.988Z,0
2017-01-16T07:43:46.702Z,0
2017-01-16T07:44:56.863Z,0
2017-01-16T07:46:06.575Z,5
2017-01-16T07:47:16.733Z,5
2017-01-16T07:48:26.950Z,5
2017-01-16T07:49:36.691Z,5
2017-01-16T07:50:46.400Z,5
2017-01-16T07:51:56.114Z,5
2017-01-16T07:53:06.707Z,5
2017-01-16T07:54:16.939Z,10
2017-01-16T07:55:26.217Z,10
2017-01-16T07:56:35.934Z,5
2017-01-16T07:57:45.651Z,5
2017-01-16T07:58:55.368Z,5
2017-01-16T08:00:05.674Z,5
2017-01-16T08:01:15.831Z,5
2017-01-16T08:02:25.115Z,5
2017-01-16T08:03:34.841Z,5
2017-01-16T08:04:45.435Z,5
2017-01-16T08:05:55.203Z,5
2017-01-16T08:07:04.920Z,10
2017-01-16T08:08:14.641Z,10
2017-01-16T08:09:24.354Z,10
2017-01-16T08:10:34.511Z,10
2017-01-16T08:11:45.152Z,10
2017-01-16T08:12:54.873Z,10
2017-01-16T08:14:04.594Z,10
2017-01-16T08:15:13.883Z,10
2017-01-16T08:16:23.596Z,10
2017-01-16T08:17:33.801Z,10
2017-01-16T08:18:43.082Z,10
2017-01-16T08:19:52.795Z,10
2017-01-16T08:21:02.952Z,10
2017-01-16T08:22:12.229Z,10
2017-01-16T08:23:21.998Z,10
2017-01-16T08:24:32.152Z,15
2017-01-16T08:25:41.433Z,15
2017-01-16T08:26:52.026Z,15
2017-01-16T08:28:02.203Z,15
2017-01-16T08:29:12.849Z,20
2017-01-16T08:30:23.014Z,20
2017-01-16T08:31:32.295Z,20
2017-01-16T08:32:42.452Z,20
2017-01-16T08:33:52.605Z,20
2017-01-16T08:35:02.978Z,20
2017-01-16T08:36:13.131Z,20
2017-01-16T08:37:23.284Z,20
2017-01-16T08:38:33.005Z,20
2017-01-16T08:39:43.603Z,20
2017-01-16T08:40:52.940Z,20
2017-01-16T08:42:02.661Z,20
2017-01-16T08:43:12.834Z,20
2017-01-16T08:44:22.991Z,20
2017-01-16T08:45:32.289Z,25
2017-01-16T08:46:42.062Z,20
2017-01-16T08:47:52.219Z,25
2017-01-16T08:49:02.812Z,25
2017-01-16T08:50:13.405Z,25
2017-01-16T08:51:23.115Z,25
2017-01-16T08:52:32.447Z,20
2017-01-16T08:53:42.597Z,20
2017-01-16T08:54:52.310Z,20
2017-01-16T08:56:02.899Z,20
2017-01-16T08:57:13.052Z,25
2017-01-16T08:58:23.705Z,25
2017-01-16T08:59:33.415Z,25
2017-01-16T09:00:43.132Z,25
2017-01-16T09:01:53.289Z,25
2017-01-16T09:03:03.886Z,25
2017-01-16T09:04:13.652Z,25
2017-01-16T09:05:23.805Z,25
2017-01-16T09:06:33.526Z,30
2017-01-16T09:07:43.688Z,30
2017-01-16T09:08:53.845Z,35
2017-01-16T09:10:04.486Z,35
2017-01-16T09:11:13.763Z,35
2017-01-16T09:12:23.477Z,35
2017-01-16T09:13:32.758Z,35
2017-01-16T09:14:42.915Z,40
2017-01-16T09:15:53.560Z,40
2017-01-16T09:17:03.718Z,35
2017-01-16T09:18:13.875Z,35
2017-01-16T09:19:24.032Z,35
2017-01-16T09:20:33.745Z,45
2017-01-16T09:21:44.051Z,45
2017-01-16T09:22:53.332Z,45
2017-01-16T09:24:02.617Z,40
2017-01-16T09:25:12.770Z,35
2017-01-16T09:26:22.063Z,35
2017-01-16T09:27:32.716Z,35
2017-01-16T09:28:42.873Z,35
2017-01-16T09:29:52.599Z,35
2017-01-16T09:31:02.317Z,35
2017-01-16T09:32:12.033Z,35
2017-01-16T09:33:22.779Z,35
2017-01-16T09:34:32.936Z,30
2017-01-16T09:35:43.525Z,35
2017-01-16T09:36:53.243Z,40
2017-01-16T09:38:02.520Z,45
2017-01-16T09:39:12.292Z,45
2017-01-16T09:40:22.010Z,45
2017-01-16T09:41:32.168Z,45
2017-01-16T09:42:41.885Z,45
2017-01-16T09:43:52.046Z,45
2017-01-16T09:45:01.380Z,45
2017-01-16T09:46:11.101Z,50
2017-01-16T09:47:21.254Z,45
2017-01-16T09:48:31.399Z,45
2017-01-16T09:49:41.120Z,45
2017-01-16T09:50:51.318Z,50
2017-01-16T09:52:01.480Z,50
2017-01-16T09:53:11.636Z,50
2017-01-16T09:54:21.349Z,50
2017-01-16T09:55:31.071Z,45
2017-01-16T09:56:40.464Z,45
2017-01-16T09:57:50.618Z,45
2017-01-16T09:59:00.335Z,40
2017-01-16T10:00:10.056Z,40
2017-01-16T10:01:20.209Z,35
2017-01-16T10:02:29.974Z,35
2017-01-16T10:03:39.696Z,40
2017-01-16T10:04:49.413Z,35
2017-01-16T10:05:59.126Z,40
2017-01-16T10:07:08.407Z,45
2017-01-16T10:08:18.177Z,50
2017-01-16T10:09:28.334Z,45
2017-01-16T10:10:38.491Z,50
2017-01-16T10:11:47.773Z,45
2017-01-16T10:12:57.486Z,45
2017-01-16T10:14:08.183Z,45
2017-01-16T10:15:17.901Z,50
2017-01-16T10:16:28.053Z,45
2017-01-16T10:17:38.647Z,40
2017-01-16T10:18:48.368Z,45
2017-01-16T10:19:58.137Z,40
2017-01-16T10:21:08.287Z,45
2017-01-16T10:22:18.444Z,50
2017-01-16T10:23:27.757Z,50
2017-01-16T10:24:37.475Z,45
2017-01-16T10:25:47.684Z,40
2017-01-16T10:26:56.969Z,40
2017-01-16T10:28:06.718Z,45
2017-01-16T10:29:15.995Z,45
2017-01-16T10:30:26.153Z,50
2017-01-16T10:31:35.922Z,50
2017-01-16T10:32:46.955Z,55
2017-01-16T10:33:56.668Z,50
2017-01-16T10:35:05.949Z,55
2017-01-16T10:36:16.111Z,55
2017-01-16T10:37:26.312Z,50
2017-01-16T10:38:36.469Z,45
2017-01-16T10:39:47.067Z,45
2017-01-16T10:40:56.783Z,45
2017-01-16T10:42:06.937Z,40
2017-01-16T10:43:16.698Z,40
2017-01-16T10:44:26.859Z,40
2017-01-16T10:45:37.009Z,45
2017-01-16T10:46:46.730Z,45
2017-01-16T10:47:56.443Z,45
2017-01-16T10:49:06.216Z,45
2017-01-16T10:50:16.370Z,45
2017-01-16T10:51:26.091Z,40
2017-01-16T10:52:35.379Z,40
2017-01-16T10:53:45.089Z,45
2017-01-16T10:54:55.290Z,50
2017-01-16T10:56:05.463Z,50
2017-01-16T10:57:15.621Z,50
2017-01-16T10:58:24.898Z,45
2017-01-16T10:59:34.175Z,45
2017-01-16T11:00:43.940Z,50
2017-01-16T11:01:54.973Z,50
2017-01-16T11:03:05.130Z,45
2017-01-16T11:04:15.287Z,50
2017-01-16T11:05:25.008Z,55
2017-01-16T11:06:34.770Z,55
2017-01-16T11:07:44.499Z,50
2017-01-16T11:08:54.659Z,45
2017-01-16T11:10:04.813Z,45
2017-01-16T11:11:14.530Z,55
2017-01-16T11:12:24.299Z,60
2017-01-16T11:13:34.020Z,60
2017-01-16T11:14:44.609Z,50
2017-01-16T11:15:54.326Z,50
2017-01-16T11:17:04.492Z,50
2017-01-16T11:18:14.702Z,55
2017-01-16T11:19:24.422Z,50
2017-01-16T11:20:33.703Z,40
2017-01-16T11:21:43.868Z,40
2017-01-16T11:22:54.029Z,45
2017-01-16T11:24:03.794Z,45
2017-01-16T11:25:13.531Z,40
2017-01-16T11:26:23.688Z,40
2017-01-16T11:27:33.421Z,45
2017-01-16T11:28:43.571Z,50
2017-01-16T11:29:52.900Z,45
2017-01-16T11:31:02.629Z,45
2017-01-16T11:32:12.354Z,50
2017-01-16T11:33:22.075Z,50
2017-01-16T11:34:32.240Z,45
2017-01-16T11:35:42.014Z,50
2017-01-16T11:36:52.167Z,55
2017-01-16T11:38:01.444Z,55
2017-01-16T11:39:11.601Z,50
2017-01-16T11:40:21.758Z,50
2017-01-16T11:41:31.971Z,50
2017-01-16T11:42:41.252Z,50
2017-01-16T11:43:50.969Z,50
2017-01-16T11:45:00.251Z,50
2017-01-16T11:46:10.407Z,55
2017-01-16T11:47:20.180Z,60
2017-01-16T11:48:29.897Z,55
2017-01-16T11:49:40.062Z,60
2017-01-16T11:50:49.807Z,60
2017-01-16T11:51:59.525Z,55
2017-01-16T11:53:08.858Z,55
2017-01-16T11:54:19.025Z,50
2017-01-16T11:55:28.307Z,50
2017-01-16T11:56:38.465Z,50
2017-01-16T11:57:48.630Z,50
2017-01-16T11:58:58.395Z,45
2017-01-16T12:00:08.556Z,50
2017-01-16T12:01:18.277Z,50
2017-01-16T12:02:28.002Z,55
2017-01-16T12:03:37.279Z,55
2017-01-16T12:04:46.608Z,50
2017-01-16T12:05:57.209Z,45
2017-01-16T12:07:06.930Z,50
2017-01-16T12:08:16.655Z,60
2017-01-16T12:09:25.937Z,60
2017-01-16T12:10:36.141Z,55
2017-01-16T12:11:46.733Z,55
2017-01-16T12:12:56.887Z,50
2017-01-16T12:14:06.612Z,40
2017-01-16T12:15:16.773Z,40
2017-01-16T12:16:26.978Z,45
2017-01-16T12:17:37.135Z,50
2017-01-16T12:18:47.324Z,50
2017-01-16T12:19:57.041Z,55
2017-01-16T12:21:06.754Z,60
2017-01-16T12:22:17.403Z,60
2017-01-16T12:23:28.000Z,55
2017-01-16T12:24:38.158Z,45
2017-01-16T12:25:48.314Z,55
2017-01-16T12:26:58.035Z,75
2017-01-16T12:28:07.360Z,90
2017-01-16T12:29:17.513Z,75
2017-01-16T12:30:27.230Z,80
2017-01-16T12:31:37.831Z,75
2017-01-16T12:32:47.564Z,65
2017-01-16T12:33:56.893Z,50
2017-01-16T12:35:06.610Z,65
2017-01-16T12:36:16.759Z,75
2017-01-16T12:37:26.508Z,60
2017-01-16T12:38:36.225Z,45
2017-01-16T12:39:46.426Z,45
2017-01-16T12:40:57.023Z,45
2017-01-16T12:42:06.744Z,50
2017-01-16T12:43:16.897Z,55
2017-01-16T12:44:26.614Z,55
2017-01-16T12:45:36.387Z,60
2017-01-16T12:46:45.684Z,60
2017-01-16T12:47:55.401Z,60
2017-01-16T12:49:05.147Z,55
2017-01-16T12:50:14.427Z,45
2017-01-16T12:51:23.756Z,35
2017-01-16T12:52:33.474Z,30
2017-01-16T12:53:43.631Z,35
2017-01-16T12:54:53.788Z,35
2017-01-16T12:56:03.073Z,45
2017-01-16T12:57:12.838Z,50
2017-01-16T12:58:23.431Z,50
2017-01-16T12:59:32.711Z,50
2017-01-16T13:00:43.305Z,45
2017-01-16T13:01:53.462Z,40
2017-01-16T13:03:03.671Z,40
2017-01-16T13:04:13.393Z,35
2017-01-16T13:05:23.990Z,30
2017-01-16T13:06:33.707Z,25
2017-01-16T13:07:43.868Z,25
2017-01-16T13:08:54.658Z,25
2017-01-16T13:10:05.246Z,25
2017-01-16T13:11:15.413Z,25
2017-01-16T13:12:25.569Z,25
2017-01-16T13:13:35.731Z,25
2017-01-16T13:14:45.496Z,25
2017-01-16T13:15:55.241Z,30
2017-01-16T13:17:04.531Z,30
2017-01-16T13:18:14.247Z,35
2017-01-16T13:19:24.425Z,35
2017-01-16T13:20:34.218Z,30
2017-01-16T13:21:43.936Z,25
2017-01-16T13:22:54.525Z,30
2017-01-16T13:24:04.682Z,40
2017-01-16T13:25:14.395Z,45
2017-01-16T13:26:25.040Z,45
2017-01-16T13:27:34.327Z,40
2017-01-16T13:28:44.924Z,35
2017-01-16T13:29:55.525Z,30
2017-01-16T13:31:05.247Z,35
2017-01-16T13:32:15.012Z,30
2017-01-16T13:33:24.737Z,30
2017-01-16T13:34:34.462Z,35
2017-01-16T13:35:44.623Z,35
2017-01-16T13:36:55.221Z,35
2017-01-16T13:38:05.430Z,35
2017-01-16T13:39:14.715Z,30
2017-01-16T13:40:24.433Z,30
2017-01-16T13:41:34.586Z,30
2017-01-16T13:42:44.303Z,25
2017-01-16T13:43:54.953Z,25
2017-01-16T13:45:05.118Z,25
2017-01-16T13:46:15.716Z,30
2017-01-16T13:47:25.869Z,35
2017-01-16T13:48:36.026Z,35
2017-01-16T13:49:46.231Z,40
2017-01-16T13:50:55.508Z,35
2017-01-16T13:52:06.110Z,30
2017-01-16T13:53:16.703Z,30
2017-01-16T13:54:26.428Z,30
2017-01-16T13:55:36.197Z,30
2017-01-16T13:56:46.379Z,30
2017-01-16T13:57:56.540Z,20
2017-01-16T13:59:06.701Z,20
2017-01-16T14:00:16.419Z,25
2017-01-16T14:01:26.624Z,30
2017-01-16T14:02:36.370Z,30
2017-01-16T14:03:45.655Z,25
2017-01-16T14:04:55.812Z,25
2017-01-16T14:06:05.094Z,40
2017-01-16T14:07:15.315Z,40
2017-01-16T14:08:24.596Z,30
2017-01-16T14:09:35.189Z,30
2017-01-16T14:10:44.467Z,30
2017-01-16T14:11:54.620Z,35
2017-01-16T14:13:04.825Z,35
2017-01-16T14:14:14.983Z,35
2017-01-16T14:15:25.144Z,30
2017-01-16T14:16:34.869Z,30
2017-01-16T14:17:45.471Z,30
2017-01-16T14:18:55.676Z,30
2017-01-16T14:20:06.613Z,30
2017-01-16T14:21:17.334Z,30
2017-01-16T14:22:29.632Z,30
2017-01-16T14:23:40.177Z,25
2017-01-16T14:24:50.503Z,20
2017-01-16T14:26:02.068Z,15
2017-01-16T14:27:13.098Z,20
2017-01-16T14:28:23.443Z,20
2017-01-16T14:29:33.564Z,25
2017-01-16T14:30:47.933Z,30
2017-01-16T14:31:59.355Z,30
2017-01-16T14:33:10.780Z,25
2017-01-16T14:34:22.381Z,20
2017-01-16T14:35:32.886Z,15
2017-01-16T14:36:44.408Z,20
2017-01-16T14:37:54.145Z,25
2017-01-16T14:39:04.334Z,25
2017-01-16T14:40:14.944Z,20
2017-01-16T14:41:25.229Z,15
2017-01-16T14:42:37.682Z,20
2017-01-16T14:43:49.799Z,20
2017-01-16T14:45:00.881Z,20
2017-01-16T14:46:11.986Z,20
2017-01-16T14:47:22.395Z,15
2017-01-16T14:48:33.492Z,15
2017-01-16T14:49:44.562Z,10
2017-01-16T14:50:56.047Z,10
2017-01-16T14:52:07.512Z,10
2017-01-16T14:53:18.849Z,10
2017-01-16T14:54:30.234Z,10
2017-01-16T14:55:41.516Z,5
2017-01-16T14:56:53.506Z,5
2017-01-16T14:58:05.039Z,5
2017-01-16T14:59:15.350Z,5
2017-01-16T15:00:25.565Z,5
2017-01-16T15:01:35.314Z,10
2017-01-16T15:02:45.732Z,10
2017-01-16T15:03:55.445Z,5
2017-01-16T15:05:04.730Z,5
2017-01-16T15:06:15.111Z,5
2017-01-16T15:07:25.713Z,5
2017-01-16T15:08:35.922Z,5
2017-01-16T15:09:45.859Z,5
2017-01-16T15:10:56.044Z,5
2017-01-16T15:12:05.813Z,5
2017-01-16T15:13:16.351Z,5
2017-01-16T15:14:26.068Z,5
2017-01-16T15:15:36.621Z,5
2017-01-16T15:16:46.534Z,0
2017-01-16T15:17:56.816Z,0
2017-01-16T15:19:06.753Z,0
2017-01-16T15:20:17.010Z,0
2017-01-16T15:21:27.163Z,0
2017-01-16T15:22:37.328Z,0
2017-01-16T15:23:47.645Z,0
2017-01-16T15:24:57.711Z,0
2017-01-16T15:26:07.792Z,0
2017-01-16T15:27:18.585Z,0
2017-01-16T15:28:29.379Z,0
2017-01-16T15:29:39.196Z,0
2017-01-16T15:30:50.465Z,0
2017-01-16T15:32:00.192Z,0
2017-01-16T15:33:10.356Z,0
2017-01-16T15:34:20.517Z,0
2017-01-16T15:35:30.437Z,0
2017-01-16T15:36:40.599Z,0
2017-01-16T15:37:50.880Z,0
2017-01-16T15:39:00.361Z,0
2017-01-16T15:40:11.011Z,0
2017-01-16T15:41:20.924Z,0
2017-01-16T15:42:31.153Z,0
2017-01-16T15:43:40.874Z,0
2017-01-16T15:44:50.591Z,0
2017-01-16T15:45:59.868Z,0
2017-01-16T15:47:09.645Z,0
2017-01-16T15:48:18.923Z,0
2017-01-16T15:49:29.080Z,0
2017-01-16T15:50:38.837Z,0
2017-01-16T15:51:48.994Z,0
2017-01-16T15:52:59.215Z,0
2017-01-16T15:54:08.941Z,0
2017-01-16T15:55:19.078Z,0
2017-01-16T15:56:29.227Z,0
2017-01-16T15:57:39.100Z,0
2017-01-16T15:58:49.362Z,0
2017-01-16T15:59:59.730Z,0
2017-01-16T16:01:09.452Z,0
2017-01-16T16:02:18.732Z,0
2017-01-16T16:03:28.446Z,0
2017-01-16T16:04:38.807Z,0
2017-01-16T16:05:48.972Z,0
2017-01-16T16:06:58.693Z,0
2017-01-16T16:08:08.855Z,0
2017-01-16T16:09:18.139Z,0
2017-01-16T16:10:27.468Z,0
2017-01-16T16:11:37.190Z,0
2017-01-16T16:12:47.351Z,0
2017-01-16T16:13:57.516Z,0
2017-01-16T16:15:07.017Z,0
2017-01-16T16:16:17.770Z,0
2017-01-16T16:17:28.647Z,0
2017-01-16T16:18:39.092Z,0
2017-01-16T16:19:49.094Z,0
2017-01-16T16:20:58.815Z,0
2017-01-16T16:22:09.736Z,0
2017-01-16T16:23:19.553Z,0
2017-01-16T16:24:29.274Z,0
2017-01-16T16:25:38.559Z,0
2017-01-16T16:26:48.728Z,0
2017-01-16T16:27:58.603Z,0
2017-01-16T16:29:08.759Z,0
2017-01-16T16:30:19.207Z,0
2017-01-16T16:31:28.781Z,0
2017-01-16T16:32:38.066Z,0
2017-01-16T16:33:47.531Z,0
2017-01-16T16:34:57.224Z,0
2017-01-16T16:36:06.593Z,0
2017-01-16T16:37:15.946Z,0
2017-01-16T16:38:26.108Z,0
2017-01-16T16:39:35.889Z,0
2017-01-16T16:40:45.610Z,0
2017-01-16T16:41:55.767Z,0
2017-01-16T16:43:05.048Z,0
2017-01-16T16:44:14.813Z,0
2017-01-16T16:45:24.382Z,0
2017-01-16T16:46:34.479Z,0
2017-01-16T16:47:44.700Z,0
2017-01-16T16:48:55.065Z,0
2017-01-16T16:50:05.971Z,0
2017-01-16T16:51:16.060Z,0
2017-01-16T16:52:25.873Z,0
2017-01-16T16:53:36.034Z,0
2017-01-16T16:54:45.755Z,0
2017-01-16T16:55:55.913Z,0
2017-01-16T16:57:06.130Z,0
2017-01-16T16:58:16.283Z,0
2017-01-16T16:59:25.564Z,0